Time;durP1;ratioP1;P1;durP2;ratioP2;P2;SDS_P1;SDS_P2;PMS_P1;PMS_P2;Temp;Humidity;BMP_temperature;BMP_pressure;BME280_temperature;BME280_humidity;BME280_pressure;Samples;Min_cycle;Max_cycle;Signal;HPM_P1;HPM_P2
2022/06/11 00:00:27;;;;;;;13.57;1.70;;;16.80;99.90;;;;;;10475884;28;20051;-62
2022/06/11 00:05:28;;;;;;;2.42;1.35;;;16.80;99.90;;;;;;10487271;28;20041;-62
2022/06/11 00:10:30;;;;;;;7.13;1.05;;;16.80;99.90;;;;;;10403536;22;20038;-89
2022/06/11 00:15:33;;;;;;;6.10;1.23;;;16.80;99.90;;;;;;10370310;28;20479;-91
2022/06/11 00:20:35;;;;;;;2.42;1.33;;;16.80;99.90;;;;;;10352979;28;20087;-90
2022/06/11 00:25:37;;;;;;;3.25;1.17;;;16.80;99.90;;;;;;10368662;28;20053;-91
2022/06/11 00:30:39;;;;;;;2.60;0.80;;;16.90;99.90;;;;;;10343434;28;20060;-91
2022/06/11 00:35:42;;;;;;;5.50;1.35;;;16.90;99.90;;;;;;10382169;28;20046;-91
2022/06/11 00:40:47;;;;;;;2.13;1.13;;;16.80;99.90;;;;;;10357634;28;20057;-90
2022/06/11 00:45:57;;;;;;;8.10;1.13;;;16.70;99.90;;;;;;10323225;28;20045;-92
2022/06/11 00:51:10;;;;;;;4.28;1.30;;;16.60;99.90;;;;;;10347536;28;20045;-90
2022/06/11 00:56:21;;;;;;;2.45;1.10;;;16.50;99.90;;;;;;10372308;28;20065;-90
2022/06/11 01:01:24;;;;;;;1.73;1.00;;;16.40;99.90;;;;;;10345269;28;20049;-91
2022/06/11 01:06:37;;;;;;;4.30;1.15;;;16.40;99.90;;;;;;10346318;28;20049;-92
2022/06/11 01:11:41;;;;;;;3.00;1.08;;;16.30;99.90;;;;;;10363331;28;20054;-91
2022/06/11 01:17:12;;;;;;;4.00;0.90;;;16.20;99.90;;;;;;10358548;28;20053;-91
2022/06/11 01:22:34;;;;;;;3.90;1.42;;;16.10;99.90;;;;;;10350612;28;20133;-91
2022/06/11 01:28:02;;;;;;;2.92;1.40;;;16.00;99.90;;;;;;10329167;28;20033;-91
2022/06/11 01:33:42;;;;;;;5.28;1.50;;;15.80;99.90;;;;;;10354184;28;20084;-93
2022/06/11 01:38:59;;;;;;;3.83;1.15;;;15.60;99.90;;;;;;10362298;28;20050;-91
2022/06/11 01:44:10;;;;;;;5.32;1.77;;;15.50;99.90;;;;;;10373906;28;20046;-90
2022/06/11 01:49:22;;;;;;;5.85;1.75;;;15.40;99.90;;;;;;10331205;28;20084;-91
2022/06/11 01:54:39;;;;;;;3.10;1.15;;;15.30;99.90;;;;;;10353429;28;20054;-90
2022/06/11 01:59:56;;;;;;;3.15;1.17;;;15.30;99.90;;;;;;10366625;28;20049;-90
2022/06/11 02:05:07;;;;;;;3.63;1.15;;;15.30;99.90;;;;;;10350467;28;20058;-90
2022/06/11 02:10:28;;;;;;;4.30;1.00;;;15.30;99.90;;;;;;10340373;28;20111;-89
2022/06/11 02:15:41;;;;;;;3.13;1.17;;;15.20;99.90;;;;;;10344342;28;20101;-89
2022/06/11 02:20:59;;;;;;;3.70;1.20;;;15.20;99.90;;;;;;10383447;28;20052;-89
2022/06/11 02:26:07;;;;;;;2.08;1.02;;;15.20;99.90;;;;;;10369658;28;20109;-91
2022/06/11 02:31:13;;;;;;;2.50;1.13;;;15.20;99.90;;;;;;10381416;28;20105;-91
2022/06/11 02:36:27;;;;;;;3.97;0.97;;;15.10;99.90;;;;;;10377494;28;20066;-91
2022/06/11 02:41:32;;;;;;;3.75;0.88;;;15.00;99.90;;;;;;10375431;28;20281;-90
2022/06/11 02:46:46;;;;;;;3.05;1.08;;;15.00;99.90;;;;;;10342939;28;20045;-90
2022/06/11 02:51:50;;;;;;;3.50;1.17;;;15.00;99.90;;;;;;10296164;28;20050;-89
2022/06/11 02:56:56;;;;;;;3.97;1.27;;;15.00;99.90;;;;;;10353944;28;20033;-90
2022/06/11 03:01:59;;;;;;;5.38;1.67;;;15.10;99.90;;;;;;10367722;28;20050;-90
2022/06/11 03:07:04;;;;;;;1.90;1.13;;;15.20;99.90;;;;;;10370548;28;20057;-90
2022/06/11 03:12:08;;;;;;;9.02;1.35;;;15.10;99.90;;;;;;10316173;28;20046;-89
2022/06/11 03:17:13;;;;;;;4.25;1.45;;;15.00;99.90;;;;;;10381328;28;20041;-87
2022/06/11 03:22:17;;;;;;;3.38;1.20;;;15.00;99.90;;;;;;10371092;28;20133;-87
2022/06/11 03:27:19;;;;;;;5.43;1.75;;;15.00;99.90;;;;;;10349532;28;20092;-87
2022/06/11 03:32:21;;;;;;;3.70;0.95;;;14.80;99.90;;;;;;10356768;28;20067;-88
2022/06/11 03:37:24;;;;;;;4.22;0.90;;;14.80;99.90;;;;;;10377979;28;20068;-87
2022/06/11 03:42:25;;;;;;;1.90;0.93;;;14.90;99.90;;;;;;10373041;28;20132;-87
2022/06/11 03:47:27;;;;;;;1.08;0.80;;;15.00;99.90;;;;;;10351412;28;20141;-89
2022/06/11 03:52:30;;;;;;;6.53;1.30;;;14.90;99.90;;;;;;10352500;28;20496;-87
2022/06/11 03:57:33;;;;;;;6.50;1.38;;;15.00;99.90;;;;;;10379721;28;20050;-88
2022/06/11 04:02:36;;;;;;;4.97;1.80;;;15.10;99.90;;;;;;10357000;28;20049;-88
2022/06/11 04:07:38;;;;;;;3.65;1.25;;;15.20;99.90;;;;;;10354466;28;20041;-89
2022/06/11 04:12:40;;;;;;;3.15;1.20;;;15.40;99.90;;;;;;10364962;28;20045;-87
2022/06/11 04:17:41;;;;;;;3.90;1.30;;;15.40;99.90;;;;;;10331327;28;20074;-88
2022/06/11 04:22:44;;;;;;;4.40;1.30;;;15.50;99.90;;;;;;10350763;28;20113;-88
2022/06/11 04:27:46;;;;;;;3.85;1.40;;;15.60;99.90;;;;;;10314370;28;20042;-88
2022/06/11 04:32:48;;;;;;;4.55;1.45;;;15.70;99.90;;;;;;10354444;28;20069;-87
2022/06/11 04:37:50;;;;;;;1.40;1.23;;;15.80;99.90;;;;;;10339870;28;20425;-87
2022/06/11 04:42:52;;;;;;;3.42;1.75;;;15.90;99.90;;;;;;10348534;28;20651;-86
2022/06/11 04:47:54;;;;;;;5.65;1.50;;;15.90;99.90;;;;;;10353107;28;20503;-87
2022/06/11 04:52:57;;;;;;;4.70;1.52;;;16.10;99.90;;;;;;10329417;28;20041;-87
2022/06/11 04:57:59;;;;;;;5.20;1.80;;;16.10;99.90;;;;;;10356927;28;20076;-87
2022/06/11 05:03:01;;;;;;;3.17;1.83;;;16.20;99.90;;;;;;10348935;28;20523;-88
2022/06/11 05:08:04;;;;;;;8.68;2.42;;;16.10;99.90;;;;;;10336158;28;20064;-88
2022/06/11 05:13:08;;;;;;;4.65;1.98;;;16.20;99.90;;;;;;10357400;28;20079;-87
2022/06/11 05:18:11;;;;;;;12.30;2.63;;;16.30;99.90;;;;;;10366692;28;20033;-86
2022/06/11 05:23:14;;;;;;;5.85;1.80;;;16.40;99.90;;;;;;10365440;28;20052;-86
2022/06/11 05:28:23;;;;;;;9.35;1.70;;;16.50;99.90;;;;;;10338229;28;20060;-88
2022/06/11 05:33:25;;;;;;;2.50;1.45;;;16.50;99.90;;;;;;10351926;28;20065;-88
2022/06/11 05:38:31;;;;;;;3.10;2.08;;;16.70;99.90;;;;;;10362281;28;20033;-87
2022/06/11 05:43:33;;;;;;;5.45;2.47;;;16.90;99.90;;;;;;10359625;28;20081;-88
2022/06/11 05:48:43;;;;;;;4.38;1.88;;;17.20;99.90;;;;;;10353428;28;20319;-87
2022/06/11 05:53:45;;;;;;;4.70;1.42;;;17.30;99.90;;;;;;10317324;28;20136;-87
2022/06/11 05:58:51;;;;;;;4.85;2.03;;;17.40;99.90;;;;;;10363438;28;20045;-87
2022/06/11 06:03:53;;;;;;;2.45;1.48;;;17.50;99.90;;;;;;10353433;28;20491;-87
2022/06/11 06:08:55;;;;;;;4.60;1.80;;;17.50;99.90;;;;;;10365262;28;20117;-87
2022/06/11 06:13:57;;;;;;;5.25;2.00;;;17.60;99.90;;;;;;10347388;28;20050;-86
2022/06/11 06:19:01;;;;;;;3.88;1.70;;;17.70;99.90;;;;;;10348269;28;20054;-86
2022/06/11 06:24:04;;;;;;;3.35;1.90;;;17.70;99.90;;;;;;10363620;28;20547;-87
2022/06/11 06:29:06;;;;;;;2.90;1.40;;;17.80;99.90;;;;;;10348014;28;20575;-87
2022/06/11 06:34:08;;;;;;;4.40;2.15;;;18.00;99.90;;;;;;10376299;28;20042;-87
2022/06/11 06:39:10;;;;;;;6.15;2.33;;;18.10;99.90;;;;;;10371206;28;20057;-87
2022/06/11 06:44:12;;;;;;;5.10;2.88;;;18.30;99.90;;;;;;10371965;28;20050;-87
2022/06/11 06:49:14;;;;;;;3.58;2.03;;;18.50;99.90;;;;;;10367591;28;20420;-87
2022/06/11 06:54:16;;;;;;;6.55;2.08;;;18.60;99.90;;;;;;10370418;28;20050;-87
2022/06/11 06:59:18;;;;;;;6.60;2.00;;;19.00;99.90;;;;;;10353834;28;20058;-88
2022/06/11 07:04:20;;;;;;;7.13;2.00;;;19.20;99.90;;;;;;10344207;28;20616;-87
2022/06/11 07:09:26;;;;;;;3.90;2.13;;;19.40;99.90;;;;;;10351062;28;20069;-86
2022/06/11 07:14:27;;;;;;;6.20;1.60;;;19.70;99.90;;;;;;10351446;28;20057;-86
2022/06/11 07:19:43;;;;;;;6.03;2.08;;;20.00;99.90;;;;;;10371696;28;20132;-86
2022/06/11 07:24:45;;;;;;;4.65;1.50;;;20.20;99.90;;;;;;10358235;28;20045;-86
2022/06/11 07:29:52;;;;;;;4.47;1.70;;;20.60;99.90;;;;;;10360335;28;20090;-86
2022/06/11 07:35:00;;;;;;;3.80;1.23;;;21.00;99.90;;;;;;10301141;28;20055;-87
2022/06/11 07:40:05;;;;;;;3.75;1.15;;;21.30;99.90;;;;;;10330968;28;20046;-87
2022/06/11 07:45:07;;;;;;;4.25;1.00;;;21.60;99.90;;;;;;10332094;28;20086;-87
2022/06/11 07:50:11;;;;;;;2.97;1.30;;;21.90;99.90;;;;;;10360384;28;20058;-86
2022/06/11 07:55:13;;;;;;;3.45;1.02;;;21.90;99.50;;;;;;10364033;28;20053;-87
2022/06/11 08:00:20;;;;;;;3.33;1.33;;;22.10;99.40;;;;;;10358270;28;20738;-87
2022/06/11 08:05:22;;;;;;;4.28;1.00;;;22.20;98.70;;;;;;10357619;28;20060;-87
2022/06/11 08:10:26;;;;;;;3.17;0.80;;;22.30;97.80;;;;;;10346198;28;20051;-86
2022/06/11 08:15:28;;;;;;;3.33;1.15;;;22.30;97.20;;;;;;10352753;28;20132;-86
2022/06/11 08:20:31;;;;;;;2.30;1.08;;;22.40;97.80;;;;;;10321314;28;20480;-86
2022/06/11 08:25:36;;;;;;;3.38;1.00;;;22.60;98.10;;;;;;10304236;28;20057;-87
2022/06/11 08:30:42;;;;;;;1.33;0.70;;;22.70;96.60;;;;;;10306744;28;20132;-87
2022/06/11 08:35:44;;;;;;;1.77;0.60;;;22.90;96.10;;;;;;10331637;28;20049;-87
2022/06/11 08:40:53;;;;;;;1.40;0.65;;;23.10;95.20;;;;;;10327246;28;20045;-85
2022/06/11 08:46:10;;;;;;;0.95;0.50;;;23.20;93.80;;;;;;10345820;28;20050;-85
2022/06/11 08:51:26;;;;;;;2.22;0.50;;;23.20;92.60;;;;;;10368313;28;20050;-86
2022/06/11 08:57:00;;;;;;;3.88;0.57;;;23.20;91.20;;;;;;10319824;28;20052;-86
2022/06/11 09:02:18;;;;;;;4.82;0.63;;;23.50;90.30;;;;;;10346112;28;20042;-86
2022/06/11 09:07:34;;;;;;;2.22;0.40;;;23.90;90.30;;;;;;10333829;28;20054;-86
2022/06/11 09:13:20;;;;;;;2.80;0.50;;;24.10;85.70;;;;;;10312561;28;20053;-86
2022/06/11 09:18:31;;;;;;;1.30;0.40;;;24.40;86.30;;;;;;10310241;28;20038;-86
2022/06/11 09:23:41;;;;;;;2.85;0.45;;;24.60;81.90;;;;;;10307907;28;20034;-86
2022/06/11 09:29:22;;;;;;;0.75;0.25;;;24.80;79.60;;;;;;10304213;28;20046;-87
2022/06/11 09:34:35;;;;;;;2.78;0.25;;;24.80;78.70;;;;;;10310256;28;20058;-87
2022/06/11 09:39:58;;;;;;;1.88;0.30;;;24.90;76.00;;;;;;10285434;28;20408;-87
2022/06/11 09:45:12;;;;;;;1.27;0.20;;;24.70;73.20;;;;;;10292875;28;20533;-88
2022/06/11 09:50:26;;;;;;;1.75;0.20;;;24.50;73.90;;;;;;10318485;28;20505;-88
2022/06/11 09:55:46;;;;;;;1.38;0.30;;;24.80;76.50;;;;;;10323635;28;20042;-88
2022/06/11 10:00:57;;;;;;;1.55;0.15;;;24.70;74.20;;;;;;10311268;28;20047;-88
2022/06/11 10:06:09;;;;;;;1.88;0.20;;;24.60;72.90;;;;;;10304384;28;20047;-86
2022/06/11 10:11:23;;;;;;;3.22;0.35;;;24.60;71.70;;;;;;10313322;28;20475;-86
2022/06/11 10:16:35;;;;;;;1.15;0.20;;;24.80;71.10;;;;;;10305619;28;20053;-87
2022/06/11 10:21:42;;;;;;;1.15;0.20;;;24.80;71.20;;;;;;10329003;28;20047;-87
2022/06/11 10:26:53;;;;;;;0.40;0.20;;;24.70;71.50;;;;;;10310121;28;20488;-86
2022/06/11 10:32:27;;;;;;;2.08;0.20;;;24.80;71.20;;;;;;10318902;28;20137;-86
2022/06/11 10:37:41;;;;;;;1.77;0.20;;;25.00;70.20;;;;;;10325202;28;20038;-86
2022/06/11 10:42:55;;;;;;;2.45;0.20;;;25.40;69.80;;;;;;10321185;28;20065;-86
2022/06/11 10:48:00;;;;;;;1.10;0.22;;;25.60;69.60;;;;;;10326504;28;20046;-87
2022/06/11 10:53:33;;;;;;;1.40;0.23;;;25.80;67.00;;;;;;10311586;28;20081;-87
2022/06/11 10:59:05;;;;;;;1.77;0.20;;;26.10;67.10;;;;;;10318445;28;20547;-87
2022/06/11 11:04:21;;;;;;;1.42;0.20;;;26.40;66.40;;;;;;10321446;28;20046;-87
2022/06/11 11:09:24;;;;;;;2.58;0.13;;;26.30;65.40;;;;;;10315426;28;20133;-87
2022/06/11 11:14:35;;;;;;;1.77;0.20;;;26.10;65.50;;;;;;10296803;28;20058;-88
2022/06/11 11:19:42;;;;;;;1.25;0.50;;;26.10;65.30;;;;;;10309877;28;20489;-88
2022/06/11 11:24:51;;;;;;;1.85;0.20;;;26.20;65.80;;;;;;10330867;28;20072;-92
2022/06/11 11:30:17;;;;;;;2.63;0.20;;;26.80;66.60;;;;;;10310446;28;20042;-86
2022/06/11 11:35:26;;;;;;;4.72;0.22;;;26.70;65.10;;;;;;10325366;28;20121;-87
2022/06/11 11:40:53;;;;;;;1.33;0.20;;;26.90;63.80;;;;;;10309929;28;20042;-85
2022/06/11 11:45:59;;;;;;;0.80;0.20;;;26.90;62.50;;;;;;10330954;28;20121;-86
2022/06/11 11:51:19;;;;;;;2.00;0.30;;;26.60;63.80;;;;;;10325805;28;20042;-87
2022/06/11 11:56:39;;;;;;;1.85;0.30;;;27.00;65.00;;;;;;10298769;28;20061;-86
2022/06/11 12:01:44;;;;;;;1.23;0.35;;;27.50;63.70;;;;;;10347646;28;20064;-86
2022/06/11 12:07:14;;;;;;;1.35;0.30;;;27.50;62.20;;;;;;10299832;28;20047;-86
2022/06/11 12:12:44;;;;;;;0.60;0.20;;;27.20;61.30;;;;;;10305543;28;20072;-86
2022/06/11 12:17:58;;;;;;;4.30;0.30;;;27.20;61.90;;;;;;10296295;28;20052;-86
2022/06/11 12:23:15;;;;;;;1.13;0.20;;;27.00;62.20;;;;;;10289052;28;20078;-86
2022/06/11 12:28:24;;;;;;;1.70;0.30;;;27.50;61.80;;;;;;10274292;28;20046;-86
2022/06/11 12:33:27;;;;;;;0.95;0.20;;;28.10;62.10;;;;;;10285275;28;20061;-86
2022/06/11 12:38:43;;;;;;;3.45;0.30;;;28.30;60.10;;;;;;10297921;28;20047;-86
2022/06/11 12:43:51;;;;;;;1.25;0.10;;;27.70;59.70;;;;;;10279278;28;20047;-86
2022/06/11 12:49:22;;;;;;;0.65;0.20;;;27.40;60.10;;;;;;10297301;28;20050;-87
2022/06/11 12:54:45;;;;;;;3.42;0.20;;;27.10;60.00;;;;;;10265693;28;20054;-87
2022/06/11 12:59:55;;;;;;;2.95;0.20;;;27.20;60.30;;;;;;10260135;28;20525;-88
2022/06/11 13:05:19;;;;;;;3.13;0.20;;;26.70;61.10;;;;;;10213122;28;20042;-89
2022/06/11 13:10:42;;;;;;;1.45;0.38;;;26.80;62.10;;;;;;10129095;28;20053;-89
2022/06/11 13:16:31;;;;;;;0.57;0.17;;;26.90;60.10;;;;;;10213988;28;20066;-89
2022/06/11 13:21:41;;;;;;;0.77;0.20;;;26.90;60.20;;;;;;10155688;28;20132;-90
2022/06/11 13:27:22;;;;;;;1.17;0.15;;;27.00;60.50;;;;;;10201472;28;20119;-90
2022/06/11 13:32:46;;;;;;;1.48;0.17;;;27.20;59.80;;;;;;10057819;28;20138;-90
2022/06/11 13:37:55;;;;;;;1.33;0.20;;;28.00;59.70;;;;;;10257730;28;20070;-90
2022/06/11 13:42:59;;;;;;;3.15;0.20;;;28.10;58.90;;;;;;10260331;28;20292;-89
2022/06/11 13:48:26;;;;;;;0.80;0.20;;;28.60;57.90;;;;;;10085288;28;20062;-89
2022/06/11 13:59:38;;;;;;;0.40;0.20;;;28.30;57.70;;;;;;10262931;28;20054;-86
2022/06/11 14:04:47;;;;;;;0.75;0.20;;;28.40;58.50;;;;;;10244276;28;20057;-87
2022/06/11 14:10:23;;;;;;;0.50;0.20;;;27.80;57.50;;;;;;10291977;28;20153;-89
2022/06/11 14:15:40;;;;;;;3.08;0.45;;;27.50;57.60;;;;;;10287652;28;21858;-87
2022/06/11 14:20:54;;;;;;;2.13;0.20;;;27.50;57.80;;;;;;10287851;28;20042;-87
2022/06/11 14:26:00;;;;;;;2.58;0.20;;;27.60;58.40;;;;;;10295404;28;20056;-88
2022/06/11 14:31:02;;;;;;;1.38;0.20;;;28.30;57.10;;;;;;10286463;28;20050;-88
2022/06/11 14:36:08;;;;;;;0.63;0.20;;;28.70;57.60;;;;;;10266637;28;20408;-88
2022/06/11 14:41:10;;;;;;;2.28;0.20;;;28.60;57.40;;;;;;10293433;28;20054;-87
2022/06/11 14:46:31;;;;;;;0.75;0.20;;;28.90;57.60;;;;;;10293745;28;20047;-87
2022/06/11 14:51:37;;;;;;;2.05;0.13;;;28.60;56.30;;;;;;10289219;28;20433;-88
2022/06/11 14:57:10;;;;;;;0.28;0.13;;;28.40;57.10;;;;;;10306562;28;20041;-89
2022/06/11 15:02:45;;;;;;;0.82;0.52;;;28.00;56.90;;;;;;10288279;28;20054;-90
2022/06/11 15:07:48;;;;;;;2.50;0.20;;;28.20;57.80;;;;;;10294292;28;20050;-88
2022/06/11 15:13:11;;;;;;;6.10;0.30;;;29.00;55.10;;;;;;10305311;28;20054;-90
2022/06/11 15:18:42;;;;;;;1.13;0.20;;;28.60;54.90;;;;;;10312409;28;20057;-89
2022/06/11 15:23:47;;;;;;;0.38;0.20;;;29.00;54.90;;;;;;10319817;28;20085;-88
2022/06/11 15:29:08;;;;;;;1.02;0.22;;;28.80;55.10;;;;;;10310056;28;20057;-88
2022/06/11 15:34:47;;;;;;;3.25;0.20;;;28.60;55.50;;;;;;10310887;28;21761;-89
2022/06/11 15:40:01;;;;;;;1.38;0.20;;;29.20;55.10;;;;;;10271342;28;20560;-93
2022/06/11 15:45:09;;;;;;;2.35;0.30;;;29.70;53.30;;;;;;10286425;28;20046;-89
2022/06/11 15:50:18;;;;;;;0.30;0.20;;;29.90;55.60;;;;;;10271180;28;20061;-90
2022/06/11 15:55:31;;;;;;;8.20;0.30;;;30.30;51.50;;;;;;10289361;28;20047;-86
2022/06/11 16:00:39;;;;;;;0.30;0.20;;;30.60;52.30;;;;;;10305724;28;20444;-85
2022/06/11 16:06:00;;;;;;;0.52;0.20;;;30.10;52.10;;;;;;10328037;28;20050;-85
2022/06/11 16:11:09;;;;;;;0.70;0.20;;;30.80;51.20;;;;;;10324797;28;20512;-85
2022/06/11 16:16:27;;;;;;;1.50;0.30;;;30.90;50.40;;;;;;10304262;28;20058;-85
2022/06/11 16:21:29;;;;;;;2.30;0.20;;;31.30;49.60;;;;;;10316988;28;20046;-85
2022/06/11 16:26:39;;;;;;;12.07;0.40;;;31.50;50.00;;;;;;10316572;28;20132;-84
2022/06/11 16:31:43;;;;;;;1.17;0.25;;;31.30;49.80;;;;;;10317091;28;20050;-84
2022/06/11 16:36:47;;;;;;;4.38;0.47;;;30.70;50.70;;;;;;10072316;28;20879;-83
2022/06/11 16:47:12;;;;;;;1.38;0.30;;;31.10;52.20;;;;;;10319022;28;20133;-84
2022/06/11 16:57:46;;;;;;;2.80;0.30;;;31.00;51.40;;;;;;10321307;28;20056;-83
2022/06/11 17:03:06;;;;;;;1.85;0.35;;;30.80;51.20;;;;;;10321658;28;20053;-84
2022/06/11 17:08:09;;;;;;;2.08;0.30;;;30.60;49.90;;;;;;10313454;28;20050;-86
2022/06/11 17:13:45;;;;;;;1.67;0.28;;;30.90;50.70;;;;;;10303256;28;20065;-85
2022/06/11 17:18:54;;;;;;;1.85;0.20;;;30.90;50.30;;;;;;10298690;28;20046;-85
2022/06/11 17:24:04;;;;;;;1.70;0.20;;;30.70;50.20;;;;;;10327301;28;20056;-85
2022/06/11 17:29:13;;;;;;;1.10;0.40;;;30.70;50.10;;;;;;10300929;28;20055;-85
2022/06/11 17:34:17;;;;;;;0.90;0.20;;;30.40;51.90;;;;;;10335658;28;20050;-85
2022/06/11 17:39:23;;;;;;;1.17;0.40;;;29.70;52.30;;;;;;10319736;28;20053;-85
2022/06/11 17:44:31;;;;;;;0.57;0.30;;;29.70;52.40;;;;;;10323367;28;20057;-86
2022/06/11 17:49:36;;;;;;;3.20;0.60;;;29.10;53.40;;;;;;10311468;28;20057;-86
2022/06/11 17:54:38;;;;;;;7.23;1.10;;;28.90;55.30;;;;;;10331640;28;20046;-85
2022/06/11 17:59:40;;;;;;;3.30;0.85;;;28.60;56.70;;;;;;10313032;28;20066;-87
2022/06/11 18:04:42;;;;;;;4.43;0.60;;;28.40;57.40;;;;;;10303083;28;20065;-85
2022/06/11 18:09:44;;;;;;;2.30;0.45;;;28.10;58.70;;;;;;10336745;28;20056;-85
2022/06/11 18:14:46;;;;;;;2.33;0.38;;;28.00;58.50;;;;;;10324593;28;20071;-85
2022/06/11 18:19:48;;;;;;;2.70;0.60;;;28.00;58.80;;;;;;10336447;28;20068;-85
2022/06/11 18:30:11;;;;;;;1.83;0.60;;;27.60;60.60;;;;;;10316156;28;22847;-85
2022/06/11 18:35:14;;;;;;;3.42;0.50;;;27.40;59.60;;;;;;10334000;28;20081;-85
2022/06/11 18:40:19;;;;;;;4.03;0.80;;;27.30;60.70;;;;;;10316807;28;20050;-86
2022/06/11 18:45:22;;;;;;;;;;;27.10;60.40;;;;;;10324007;28;20051;-87
2022/06/11 18:50:27;;;;;;;1.30;0.45;;;27.00;61.00;;;;;;10305773;28;19976;-86
2022/06/11 18:55:30;;;;;;;1.58;0.40;;;26.80;60.70;;;;;;10301885;28;20042;-86
2022/06/11 19:00:31;;;;;;;2.72;0.30;;;26.70;60.40;;;;;;10302760;28;20393;-85
2022/06/11 19:05:34;;;;;;;2.75;0.40;;;26.70;60.20;;;;;;10325983;28;20132;-86
2022/06/11 19:10:36;;;;;;;2.53;0.85;;;26.60;60.50;;;;;;10279560;28;20060;-85
2022/06/11 19:15:39;;;;;;;3.38;0.52;;;26.40;61.30;;;;;;10273216;28;20521;-85
2022/06/11 19:20:43;;;;;;;3.25;0.70;;;26.30;60.80;;;;;;10283502;28;20046;-85
2022/06/11 19:25:48;;;;;;;7.45;1.48;;;26.10;62.30;;;;;;10280002;28;20368;-85
2022/06/11 19:30:51;;;;;;;5.37;2.33;;;25.90;66.10;;;;;;10285684;28;20138;-83
2022/06/11 19:36:04;;;;;;;5.60;1.45;;;25.70;71.60;;;;;;10285635;28;20053;-83
2022/06/11 19:41:10;;;;;;;3.75;1.52;;;25.40;72.40;;;;;;10281949;28;20092;-83
2022/06/11 19:46:13;;;;;;;2.55;1.25;;;25.10;73.90;;;;;;10291004;28;20065;-83
2022/06/11 19:51:18;;;;;;;4.03;0.60;;;24.90;76.10;;;;;;10263619;28;20066;-83
2022/06/11 19:56:22;;;;;;;2.60;0.60;;;24.70;77.90;;;;;;10278661;28;20054;-86
2022/06/11 20:01:26;;;;;;;4.03;0.70;;;24.50;80.80;;;;;;10290550;28;20101;-86
2022/06/11 20:06:28;;;;;;;1.50;0.80;;;24.20;83.10;;;;;;10286785;28;20054;-86
2022/06/11 20:11:31;;;;;;;1.85;0.50;;;24.00;84.90;;;;;;10310033;28;20038;-85
2022/06/11 20:16:34;;;;;;;3.72;0.90;;;23.70;86.50;;;;;;10298912;28;20129;-86
2022/06/11 20:21:37;;;;;;;0.98;0.50;;;23.50;88.40;;;;;;10306016;28;20125;-85
2022/06/11 20:26:38;;;;;;;3.33;0.75;;;23.30;90.30;;;;;;10323493;28;20058;-86
2022/06/11 20:31:40;;;;;;;8.52;1.38;;;23.20;91.90;;;;;;10307199;28;21511;-85
2022/06/11 20:36:42;;;;;;;2.38;0.80;;;23.10;93.20;;;;;;10303390;28;20038;-85
2022/06/11 20:41:44;;;;;;;2.55;0.90;;;22.80;95.10;;;;;;10301877;28;20047;-85
2022/06/11 20:46:46;;;;;;;5.57;1.02;;;22.50;96.30;;;;;;10314706;28;20125;-86
2022/06/11 20:51:49;;;;;;;4.50;1.35;;;22.40;97.80;;;;;;10306615;28;20022;-86
2022/06/11 20:56:51;;;;;;;3.80;1.17;;;22.30;99.10;;;;;;10307740;28;20049;-85
2022/06/11 21:01:53;;;;;;;4.55;1.20;;;22.00;99.90;;;;;;10310061;28;20050;-85
2022/06/11 21:12:17;;;;;;;2.50;0.90;;;21.70;99.90;;;;;;10312259;28;20076;-86
2022/06/11 21:17:22;;;;;;;2.55;0.80;;;21.50;99.90;;;;;;10284184;28;20507;-87
2022/06/11 21:22:30;;;;;;;4.20;1.02;;;21.40;99.90;;;;;;10308415;28;20054;-87
2022/06/11 21:27:33;;;;;;;4.03;1.17;;;21.20;99.90;;;;;;10337305;28;20105;-88
2022/06/11 21:32:35;;;;;;;8.93;1.40;;;21.10;99.90;;;;;;10309180;28;20058;-84
2022/06/11 21:37:37;;;;;;;5.88;1.45;;;21.00;99.90;;;;;;10324418;28;20078;-86
2022/06/11 21:42:40;;;;;;;1.27;1.00;;;20.80;99.90;;;;;;10275461;28;20370;-91
2022/06/11 21:47:45;;;;;;;2.17;0.90;;;20.60;99.90;;;;;;10257455;28;20089;-93
2022/06/11 21:52:48;;;;;;;2.80;0.98;;;20.50;99.90;;;;;;10276338;28;20049;-91
2022/06/11 21:57:55;;;;;;;1.90;0.70;;;20.30;99.90;;;;;;10278006;28;20050;-93
2022/06/11 22:02:59;;;;;;;5.20;1.08;;;20.20;99.90;;;;;;10302002;28;20097;-91
2022/06/11 22:08:01;;;;;;;3.17;1.20;;;20.10;99.90;;;;;;10316046;28;20038;-91
2022/06/11 22:13:06;;;;;;;3.78;2.15;;;19.90;99.90;;;;;;10303229;28;20043;-94
2022/06/11 22:18:08;;;;;;;2.65;1.67;;;19.80;99.90;;;;;;10318087;28;20297;-91
2022/06/11 22:23:10;;;;;;;7.05;2.25;;;19.70;99.90;;;;;;10325938;28;20082;-89
2022/06/11 22:28:12;;;;;;;3.00;1.70;;;19.50;99.90;;;;;;10327653;28;20046;-89
2022/06/11 22:33:15;;;;;;;4.60;2.20;;;19.40;99.90;;;;;;10331982;28;20133;-89
2022/06/11 22:38:18;;;;;;;4.65;1.60;;;19.30;99.90;;;;;;10313013;28;20137;-90
2022/06/11 22:43:20;;;;;;;3.47;1.40;;;19.20;99.90;;;;;;10312992;28;20058;-89
2022/06/11 22:48:23;;;;;;;2.17;1.08;;;19.10;99.90;;;;;;10304942;28;20081;-91
2022/06/11 22:53:27;;;;;;;4.13;1.45;;;19.00;99.90;;;;;;10246841;28;20123;-91
2022/06/11 22:58:34;;;;;;;5.15;1.10;;;18.80;99.90;;;;;;10229718;28;20096;-90
2022/06/11 23:03:44;;;;;;;2.05;1.10;;;18.70;99.90;;;;;;10278698;28;20778;-90
2022/06/11 23:08:46;;;;;;;3.80;1.23;;;18.60;99.90;;;;;;10270294;28;20567;-90
2022/06/11 23:13:52;;;;;;;5.30;1.13;;;18.50;99.90;;;;;;10335092;28;20029;-91
2022/06/11 23:18:54;;;;;;;3.53;1.52;;;18.40;99.90;;;;;;10294628;28;20573;-90
2022/06/11 23:23:57;;;;;;;3.03;1.20;;;18.30;99.90;;;;;;10334182;28;20073;-91
2022/06/11 23:29:00;;;;;;;3.28;1.45;;;18.20;99.90;;;;;;10313241;28;20050;-91
2022/06/11 23:34:05;;;;;;;2.13;1.52;;;18.20;99.90;;;;;;10308708;28;20056;-91
2022/06/11 23:39:08;;;;;;;2.53;1.15;;;18.10;99.90;;;;;;10282945;28;20069;-91
2022/06/11 23:44:09;;;;;;;3.88;1.35;;;18.00;99.90;;;;;;10290812;28;20101;-91
2022/06/11 23:49:12;;;;;;;3.10;0.90;;;17.90;99.90;;;;;;10262192;28;20096;-92
2022/06/11 23:54:14;;;;;;;4.00;1.00;;;17.90;99.90;;;;;;10255024;28;20100;-92
2022/06/11 23:59:16;;;;;;;2.45;1.40;;;17.80;99.90;;;;;;10303297;28;20105;-92
